Time;durP1;ratioP1;P1;durP2;ratioP2;P2;SDS_P1;SDS_P2;PMS_P1;PMS_P2;Temp;Humidity;BMP_temperature;BMP_pressure;BME280_temperature;BME280_humidity;BME280_pressure;Samples;Min_cycle;Max_cycle;Signal;HPM_P1;HPM_P2
2024/01/21 00:00:42;;;;;;;11.27;5.75;;;;;;;;;;5004224;28;20026;-83
2024/01/21 00:03:09;;;;;;;11.73;6.53;;;;;;;;;;5008590;28;20372;-82
2024/01/21 00:05:35;;;;;;;10.85;5.78;;;;;;;;;;5010578;28;20034;-82
2024/01/21 00:08:01;;;;;;;12.48;6.47;;;;;;;;;;5002291;28;20037;-81
2024/01/21 00:10:27;;;;;;;12.13;6.55;;;;;;;;;;5022031;28;20037;-82
2024/01/21 00:12:53;;;;;;;16.45;7.13;;;;;;;;;;5010167;28;20042;-82
2024/01/21 00:15:19;;;;;;;16.20;6.55;;;;;;;;;;5007338;28;20029;-81
2024/01/21 00:17:45;;;;;;;12.68;6.32;;;;;;;;;;5012694;28;20018;-82
2024/01/21 00:20:11;;;;;;;12.35;7.20;;;;;;;;;;5010844;28;20028;-83
2024/01/21 00:22:38;;;;;;;11.85;6.38;;;;;;;;;;5002145;28;20040;-82
2024/01/21 00:25:05;;;;;;;11.95;6.85;;;;;;;;;;5006450;28;20045;-86
2024/01/21 00:27:31;;;;;;;10.40;6.78;;;;;;;;;;5009867;28;20497;-81
2024/01/21 00:29:57;;;;;;;10.10;6.57;;;;;;;;;;5024007;28;20032;-83
2024/01/21 00:32:23;;;;;;;11.77;7.25;;;;;;;;;;5011678;28;20099;-83
2024/01/21 00:34:49;;;;;;;12.55;6.75;;;;;;;;;;5002158;28;20030;-83
2024/01/21 00:37:15;;;;;;;12.32;7.38;;;;;;;;;;5008123;28;20084;-83
2024/01/21 00:39:41;;;;;;;11.63;6.97;;;;;;;;;;5003207;28;20038;-82
2024/01/21 00:42:07;;;;;;;13.10;7.00;;;;;;;;;;5006130;28;20025;-84
2024/01/21 00:44:33;;;;;;;10.93;6.90;;;;;;;;;;5012656;28;20379;-83
2024/01/21 00:46:59;;;;;;;13.07;6.80;;;;;;;;;;5008430;28;20486;-82
2024/01/21 00:49:25;;;;;;;11.38;6.63;;;;;;;;;;5009574;28;20545;-81
2024/01/21 00:51:52;;;;;;;12.70;6.55;;;;;;;;;;5000062;28;20487;-81
2024/01/21 00:54:18;;;;;;;9.70;5.55;;;;;;;;;;5012817;28;20041;-82
2024/01/21 00:56:44;;;;;;;10.38;6.35;;;;;;;;;;5013103;28;20045;-82
2024/01/21 00:59:10;;;;;;;15.05;5.85;;;;;;;;;;5004341;28;20065;-82
2024/01/21 01:01:38;;;;;;;11.93;6.65;;;;;;;;;;5013346;28;20034;-82
2024/01/21 01:04:04;;;;;;;11.85;5.75;;;;;;;;;;5012129;28;20099;-82
2024/01/21 01:06:31;;;;;;;10.75;6.18;;;;;;;;;;5011186;28;20034;-83
2024/01/21 01:08:57;;;;;;;10.18;5.55;;;;;;;;;;5006431;28;20030;-82
2024/01/21 01:11:24;;;;;;;12.55;6.35;;;;;;;;;;5013616;28;20457;-83
2024/01/21 01:13:50;;;;;;;10.18;5.82;;;;;;;;;;5010685;28;20034;-85
2024/01/21 01:16:16;;;;;;;10.60;5.68;;;;;;;;;;5011264;28;20021;-83
2024/01/21 01:18:42;;;;;;;9.70;5.30;;;;;;;;;;5010008;28;20030;-83
2024/01/21 01:21:12;;;;;;;11.15;5.35;;;;;;;;;;5005493;28;20478;-83
2024/01/21 01:23:38;;;;;;;9.18;5.57;;;;;;;;;;5010316;28;20036;-82
2024/01/21 01:26:04;;;;;;;10.00;5.28;;;;;;;;;;5007538;28;20502;-82
2024/01/21 01:28:31;;;;;;;9.93;5.18;;;;;;;;;;5013153;28;20041;-83
2024/01/21 01:30:57;;;;;;;9.45;5.35;;;;;;;;;;5010822;28;20092;-82
2024/01/21 01:33:24;;;;;;;8.45;4.65;;;;;;;;;;5001993;28;20042;-82
2024/01/21 01:35:50;;;;;;;7.95;5.63;;;;;;;;;;5010949;28;20064;-82
2024/01/21 01:38:16;;;;;;;10.93;4.80;;;;;;;;;;5006933;28;20058;-83
2024/01/21 01:40:43;;;;;;;9.50;5.95;;;;;;;;;;4997134;28;20088;-83
2024/01/21 01:43:09;;;;;;;15.10;5.05;;;;;;;;;;4995984;28;20038;-82
2024/01/21 01:45:35;;;;;;;9.27;5.63;;;;;;;;;;5010396;28;20048;-82
2024/01/21 01:48:02;;;;;;;9.95;5.80;;;;;;;;;;5007011;28;20045;-83
2024/01/21 01:50:30;;;;;;;15.10;6.15;;;;;;;;;;5010629;28;20030;-83
2024/01/21 01:52:56;;;;;;;8.40;4.97;;;;;;;;;;5002630;28;20039;-83
2024/01/21 01:55:22;;;;;;;7.63;5.07;;;;;;;;;;5017087;28;20545;-87
2024/01/21 01:57:49;;;;;;;11.82;5.20;;;;;;;;;;5012099;28;20038;-85
2024/01/21 02:00:15;;;;;;;7.00;4.95;;;;;;;;;;5010514;28;20527;-85
2024/01/21 02:02:42;;;;;;;9.23;5.00;;;;;;;;;;5017712;28;20521;-83
2024/01/21 02:05:08;;;;;;;10.48;5.18;;;;;;;;;;5009299;28;20423;-83
2024/01/21 02:07:35;;;;;;;9.27;6.03;;;;;;;;;;5005081;28;20042;-83
2024/01/21 02:10:01;;;;;;;8.93;4.97;;;;;;;;;;5011106;28;20034;-83
2024/01/21 02:12:28;;;;;;;11.68;5.80;;;;;;;;;;5003432;28;20526;-85
2024/01/21 02:14:54;;;;;;;9.90;5.93;;;;;;;;;;5009890;28;20029;-83
2024/01/21 02:17:20;;;;;;;8.60;4.90;;;;;;;;;;5007261;28;20029;-83
2024/01/21 02:19:46;;;;;;;8.90;5.25;;;;;;;;;;5004257;28;20053;-87
2024/01/21 02:22:15;;;;;;;8.60;5.32;;;;;;;;;;5008724;28;21279;-82
2024/01/21 02:24:41;;;;;;;14.40;5.63;;;;;;;;;;5010729;28;20030;-84
2024/01/21 02:27:07;;;;;;;8.50;5.25;;;;;;;;;;5010970;28;20021;-87
2024/01/21 02:29:33;;;;;;;9.73;5.43;;;;;;;;;;5009499;28;20064;-83
2024/01/21 02:31:59;;;;;;;8.00;4.95;;;;;;;;;;5009973;28;20034;-83
2024/01/21 02:34:25;;;;;;;9.25;5.57;;;;;;;;;;5009272;28;20033;-83
2024/01/21 02:36:51;;;;;;;8.65;4.63;;;;;;;;;;5005341;28;20498;-83
2024/01/21 02:39:17;;;;;;;7.78;5.45;;;;;;;;;;5000643;28;20030;-84
2024/01/21 02:41:43;;;;;;;14.23;5.80;;;;;;;;;;5008916;28;20073;-84
2024/01/21 02:44:09;;;;;;;8.38;5.00;;;;;;;;;;5008597;28;20068;-88
2024/01/21 02:46:35;;;;;;;8.73;5.40;;;;;;;;;;5011410;28;20116;-83
2024/01/21 02:49:01;;;;;;;9.75;4.43;;;;;;;;;;5010743;28;20026;-85
2024/01/21 02:51:27;;;;;;;9.10;5.13;;;;;;;;;;5010724;28;20041;-85
2024/01/21 02:53:54;;;;;;;8.65;4.88;;;;;;;;;;5011531;28;20598;-82
2024/01/21 02:56:23;;;;;;;10.27;5.43;;;;;;;;;;5009035;28;20041;-83
2024/01/21 02:58:53;;;;;;;8.70;4.95;;;;;;;;;;5008536;28;20026;-83
2024/01/21 03:01:19;;;;;;;9.52;4.70;;;;;;;;;;5003346;28;20076;-84
2024/01/21 03:03:45;;;;;;;9.25;4.82;;;;;;;;;;5011877;28;20116;-84
2024/01/21 03:06:12;;;;;;;6.43;4.55;;;;;;;;;;5005683;28;20030;-85
2024/01/21 03:08:38;;;;;;;8.75;4.22;;;;;;;;;;5011933;28;20030;-86
2024/01/21 03:11:04;;;;;;;6.95;4.40;;;;;;;;;;5010657;28;20530;-82
2024/01/21 03:13:30;;;;;;;9.65;4.78;;;;;;;;;;5010337;28;20475;-84
2024/01/21 03:15:56;;;;;;;8.02;4.13;;;;;;;;;;5007873;28;20062;-83
2024/01/21 03:18:23;;;;;;;8.60;4.57;;;;;;;;;;5006349;28;20049;-84
2024/01/21 03:20:49;;;;;;;9.65;4.63;;;;;;;;;;5007595;28;20026;-83
2024/01/21 03:23:15;;;;;;;6.40;4.25;;;;;;;;;;5009319;28;20049;-85
2024/01/21 03:25:41;;;;;;;6.40;3.78;;;;;;;;;;5010592;28;20033;-84
2024/01/21 03:28:09;;;;;;;9.15;3.80;;;;;;;;;;5009371;28;20034;-83
2024/01/21 03:30:35;;;;;;;5.22;3.58;;;;;;;;;;5010346;28;20165;-82
2024/01/21 03:33:01;;;;;;;5.32;3.53;;;;;;;;;;5000012;28;20153;-84
2024/01/21 03:35:27;;;;;;;5.95;3.88;;;;;;;;;;4994398;28;20484;-80
2024/01/21 03:37:53;;;;;;;4.97;3.42;;;;;;;;;;5005411;28;20026;-84
2024/01/21 03:40:19;;;;;;;7.07;4.25;;;;;;;;;;5004517;28;20046;-82
2024/01/21 03:42:47;;;;;;;5.75;3.88;;;;;;;;;;5005822;28;20038;-84
2024/01/21 03:45:13;;;;;;;6.65;3.63;;;;;;;;;;5008599;28;20388;-80
2024/01/21 03:47:40;;;;;;;5.63;3.42;;;;;;;;;;5018338;28;20479;-82
2024/01/21 03:50:06;;;;;;;5.88;3.85;;;;;;;;;;5001457;28;20084;-86
2024/01/21 03:52:32;;;;;;;5.35;3.72;;;;;;;;;;5004637;28;20034;-79
2024/01/21 03:54:58;;;;;;;4.10;2.40;;;;;;;;;;5005666;28;20061;-80
2024/01/21 03:57:24;;;;;;;4.38;3.50;;;;;;;;;;5007466;28;20026;-81
2024/01/21 03:59:50;;;;;;;6.18;3.70;;;;;;;;;;5007184;28;20038;-80
2024/01/21 04:02:16;;;;;;;5.38;3.40;;;;;;;;;;5006744;28;20034;-82
2024/01/21 04:04:45;;;;;;;8.07;3.72;;;;;;;;;;5007075;28;20115;-83
2024/01/21 04:07:11;;;;;;;6.38;3.47;;;;;;;;;;5007191;28;20030;-80
2024/01/21 04:09:37;;;;;;;5.20;3.28;;;;;;;;;;5006901;28;20086;-82
2024/01/21 04:12:03;;;;;;;6.50;3.10;;;;;;;;;;5004050;28;20103;-81
2024/01/21 04:14:29;;;;;;;6.20;3.45;;;;;;;;;;5006326;28;20492;-83
2024/01/21 04:16:55;;;;;;;5.90;3.30;;;;;;;;;;5008105;28;20030;-79
2024/01/21 04:19:21;;;;;;;7.18;3.67;;;;;;;;;;5008317;28;20038;-83
2024/01/21 04:21:47;;;;;;;7.25;3.50;;;;;;;;;;5007521;28;20468;-80
2024/01/21 04:24:13;;;;;;;5.50;3.15;;;;;;;;;;5006235;28;20094;-81
2024/01/21 04:26:39;;;;;;;6.60;3.92;;;;;;;;;;5003295;28;20026;-80
2024/01/21 04:29:05;;;;;;;4.85;2.78;;;;;;;;;;5007531;28;20037;-84
2024/01/21 04:31:31;;;;;;;6.13;3.58;;;;;;;;;;5016146;28;20140;-85
2024/01/21 04:33:57;;;;;;;5.80;3.03;;;;;;;;;;5008410;28;20034;-80
2024/01/21 04:36:23;;;;;;;4.65;3.00;;;;;;;;;;5003933;28;20112;-86
2024/01/21 04:38:49;;;;;;;5.70;3.22;;;;;;;;;;5009220;28;20038;-83
2024/01/21 04:41:15;;;;;;;8.85;3.85;;;;;;;;;;5005517;28;20113;-82
2024/01/21 04:43:44;;;;;;;6.60;2.70;;;;;;;;;;5008206;28;20030;-85
2024/01/21 04:46:10;;;;;;;6.22;3.30;;;;;;;;;;5003415;28;20038;-81
2024/01/21 04:48:36;;;;;;;5.95;3.15;;;;;;;;;;5008516;28;20034;-83
2024/01/21 04:51:03;;;;;;;6.70;3.55;;;;;;;;;;5007098;28;20029;-82
2024/01/21 04:53:29;;;;;;;5.05;3.22;;;;;;;;;;5012411;28;20495;-80
2024/01/21 04:55:56;;;;;;;5.43;3.13;;;;;;;;;;5011207;28;20064;-84
2024/01/21 04:58:22;;;;;;;5.32;3.50;;;;;;;;;;5013058;28;20384;-82
2024/01/21 05:00:48;;;;;;;5.30;3.22;;;;;;;;;;5011817;28;20446;-81
2024/01/21 05:03:15;;;;;;;5.68;3.28;;;;;;;;;;5011803;28;20036;-81
2024/01/21 05:05:41;;;;;;;7.43;3.97;;;;;;;;;;5012237;28;20022;-81
2024/01/21 05:08:07;;;;;;;4.90;2.85;;;;;;;;;;5009242;28;20029;-81
2024/01/21 05:10:34;;;;;;;7.45;3.20;;;;;;;;;;5012780;28;20097;-83
2024/01/21 05:13:00;;;;;;;4.15;2.90;;;;;;;;;;5004635;28;20046;-80
2024/01/21 05:15:26;;;;;;;7.78;3.85;;;;;;;;;;5014398;28;20033;-84
2024/01/21 05:17:52;;;;;;;4.38;2.85;;;;;;;;;;5008765;28;20045;-80
2024/01/21 05:20:18;;;;;;;6.50;3.50;;;;;;;;;;5011985;28;20463;-85
2024/01/21 05:22:44;;;;;;;5.93;3.05;;;;;;;;;;5011729;28;20033;-79
2024/01/21 05:25:10;;;;;;;5.47;2.92;;;;;;;;;;5005461;28;20026;-81
2024/01/21 05:27:36;;;;;;;4.88;3.00;;;;;;;;;;5008014;28;20113;-83
2024/01/21 05:30:03;;;;;;;4.38;2.67;;;;;;;;;;5010338;28;20061;-80
2024/01/21 05:32:29;;;;;;;4.57;2.90;;;;;;;;;;5013231;28;20073;-81
2024/01/21 05:34:55;;;;;;;4.30;3.13;;;;;;;;;;5008385;28;20379;-83
2024/01/21 05:37:21;;;;;;;5.47;3.22;;;;;;;;;;5009267;28;20518;-86
2024/01/21 05:39:47;;;;;;;5.20;2.88;;;;;;;;;;5009913;28;20026;-86
2024/01/21 05:42:13;;;;;;;10.27;2.92;;;;;;;;;;5005400;28;20037;-82
2024/01/21 05:44:39;;;;;;;6.20;3.33;;;;;;;;;;5009349;28;20403;-85
2024/01/21 05:47:05;;;;;;;5.32;2.92;;;;;;;;;;5010129;28;20036;-82
2024/01/21 05:49:32;;;;;;;5.30;2.70;;;;;;;;;;5011419;28;20072;-80
2024/01/21 05:51:58;;;;;;;4.13;3.05;;;;;;;;;;5007007;28;20030;-81
2024/01/21 05:54:27;;;;;;;4.70;3.17;;;;;;;;;;5012028;28;20423;-81
2024/01/21 05:56:53;;;;;;;4.70;3.00;;;;;;;;;;5010962;28;20026;-84
2024/01/21 05:59:20;;;;;;;5.88;3.03;;;;;;;;;;5010720;28;20049;-82
2024/01/21 06:01:50;;;;;;;4.63;3.25;;;;;;;;;;5008549;28;20026;-81
2024/01/21 06:04:19;;;;;;;5.25;2.85;;;;;;;;;;5008905;28;20087;-82
2024/01/21 06:06:45;;;;;;;6.53;3.05;;;;;;;;;;5009004;28;20484;-81
2024/01/21 06:09:11;;;;;;;4.22;2.65;;;;;;;;;;5006310;28;20109;-81
2024/01/21 06:11:39;;;;;;;5.97;3.33;;;;;;;;;;5010147;28;20056;-81
2024/01/21 06:14:05;;;;;;;4.22;2.60;;;;;;;;;;5009741;28;20044;-84
2024/01/21 06:16:31;;;;;;;5.97;3.13;;;;;;;;;;5011463;28;20034;-83
2024/01/21 06:18:57;;;;;;;6.38;3.17;;;;;;;;;;5010827;28;20036;-81
2024/01/21 06:21:23;;;;;;;8.10;3.50;;;;;;;;;;5000362;28;20464;-82
2024/01/21 06:23:49;;;;;;;5.20;3.22;;;;;;;;;;4993097;28;20034;-82
2024/01/21 06:26:17;;;;;;;7.28;3.72;;;;;;;;;;5010526;28;20125;-83
2024/01/21 06:28:43;;;;;;;5.53;3.30;;;;;;;;;;5009412;28;20042;-83
2024/01/21 06:31:09;;;;;;;6.68;3.40;;;;;;;;;;5009467;28;20062;-81
2024/01/21 06:33:35;;;;;;;5.20;3.28;;;;;;;;;;4999834;28;20041;-85
2024/01/21 06:36:01;;;;;;;4.43;2.58;;;;;;;;;;5001012;28;20041;-82
2024/01/21 06:38:27;;;;;;;4.80;2.90;;;;;;;;;;5010466;28;20034;-83
2024/01/21 06:40:53;;;;;;;4.30;2.45;;;;;;;;;;5008096;28;20026;-82
2024/01/21 06:43:19;;;;;;;4.15;3.00;;;;;;;;;;5007273;28;20060;-82
2024/01/21 06:45:45;;;;;;;7.10;3.55;;;;;;;;;;5007487;28;20030;-82
2024/01/21 06:48:12;;;;;;;8.82;3.22;;;;;;;;;;5010693;28;20030;-84
2024/01/21 06:50:38;;;;;;;7.45;3.85;;;;;;;;;;5010633;28;20026;-85
2024/01/21 06:53:04;;;;;;;5.25;3.17;;;;;;;;;;5010914;28;20046;-82
2024/01/21 06:55:30;;;;;;;5.18;2.92;;;;;;;;;;5007526;28;20486;-81
2024/01/21 06:57:56;;;;;;;5.25;3.50;;;;;;;;;;5009778;28;20034;-81
2024/01/21 07:00:22;;;;;;;6.90;3.28;;;;;;;;;;5012540;28;20022;-82
2024/01/21 07:02:48;;;;;;;5.78;3.40;;;;;;;;;;5009160;28;20069;-82
2024/01/21 07:05:14;;;;;;;7.10;3.53;;;;;;;;;;5008895;28;20037;-81
2024/01/21 07:07:40;;;;;;;7.00;3.55;;;;;;;;;;5009134;28;20034;-83
2024/01/21 07:10:07;;;;;;;4.93;2.95;;;;;;;;;;5008711;28;20034;-81
2024/01/21 07:12:33;;;;;;;5.35;3.20;;;;;;;;;;5002706;28;20044;-83
2024/01/21 07:14:59;;;;;;;10.10;4.18;;;;;;;;;;5009793;28;20105;-83
2024/01/21 07:17:25;;;;;;;5.65;3.33;;;;;;;;;;5017012;28;20022;-82
2024/01/21 07:19:53;;;;;;;6.90;3.33;;;;;;;;;;4995637;28;20384;-81
2024/01/21 07:22:20;;;;;;;5.85;3.78;;;;;;;;;;4998542;28;20022;-82
2024/01/21 07:24:46;;;;;;;7.72;3.50;;;;;;;;;;5009314;28;20395;-83
2024/01/21 07:27:12;;;;;;;6.45;3.80;;;;;;;;;;5009185;28;20383;-82
2024/01/21 07:29:38;;;;;;;6.50;3.90;;;;;;;;;;5006675;28;20034;-84
2024/01/21 07:32:04;;;;;;;25.55;4.75;;;;;;;;;;5005675;28;20022;-81
2024/01/21 07:34:31;;;;;;;6.05;3.97;;;;;;;;;;5009223;28;20132;-86
2024/01/21 07:36:57;;;;;;;10.30;4.63;;;;;;;;;;5004578;28;20072;-82
2024/01/21 07:39:23;;;;;;;9.15;4.13;;;;;;;;;;5008669;28;20029;-84
2024/01/21 07:41:49;;;;;;;8.27;4.13;;;;;;;;;;5004007;28;20030;-82
2024/01/21 07:44:15;;;;;;;5.15;3.88;;;;;;;;;;5009223;28;20099;-82
2024/01/21 07:46:41;;;;;;;8.68;4.50;;;;;;;;;;5010820;28;20045;-82
2024/01/21 07:49:07;;;;;;;6.72;3.97;;;;;;;;;;5009327;28;20033;-85
2024/01/21 07:51:34;;;;;;;6.15;3.60;;;;;;;;;;5005174;28;20037;-84
2024/01/21 07:54:00;;;;;;;6.97;4.45;;;;;;;;;;5008927;28;20395;-85
2024/01/21 07:56:26;;;;;;;4.57;3.30;;;;;;;;;;5001749;28;20076;-80
2024/01/21 07:58:52;;;;;;;6.80;4.00;;;;;;;;;;5008534;28;20064;-83
2024/01/21 08:01:21;;;;;;;5.75;4.40;;;;;;;;;;5004140;28;20026;-81
2024/01/21 08:03:47;;;;;;;8.15;4.72;;;;;;;;;;5004771;28;20042;-86
2024/01/21 08:06:13;;;;;;;7.60;3.83;;;;;;;;;;5009882;28;20030;-80
2024/01/21 08:08:39;;;;;;;7.15;3.75;;;;;;;;;;5009456;28;20052;-83
2024/01/21 08:11:06;;;;;;;8.35;3.50;;;;;;;;;;5005128;28;20058;-81
2024/01/21 08:13:32;;;;;;;11.05;4.70;;;;;;;;;;5007155;28;20037;-80
2024/01/21 08:15:58;;;;;;;8.05;4.30;;;;;;;;;;5013354;28;20663;-80
2024/01/21 08:18:24;;;;;;;6.82;4.30;;;;;;;;;;5001503;28;20156;-80
2024/01/21 08:20:50;;;;;;;7.15;3.88;;;;;;;;;;5008728;28;20034;-84
2024/01/21 08:23:19;;;;;;;6.18;4.25;;;;;;;;;;5007499;28;21533;-83
2024/01/21 08:25:45;;;;;;;26.00;4.93;;;;;;;;;;5008633;28;20029;-82
2024/01/21 08:28:11;;;;;;;9.95;4.53;;;;;;;;;;5012171;28;20040;-86
2024/01/21 08:30:37;;;;;;;7.38;4.18;;;;;;;;;;5013138;28;20045;-83
2024/01/21 08:33:03;;;;;;;7.50;4.70;;;;;;;;;;5012779;28;20045;-81
2024/01/21 08:35:30;;;;;;;8.45;4.55;;;;;;;;;;5009489;28;20041;-84
2024/01/21 08:37:56;;;;;;;7.70;4.47;;;;;;;;;;5010813;28;20706;-81
2024/01/21 08:40:22;;;;;;;7.40;4.47;;;;;;;;;;5010786;28;20408;-82
2024/01/21 08:42:48;;;;;;;7.22;4.25;;;;;;;;;;5013879;28;20069;-81
2024/01/21 08:45:14;;;;;;;7.05;4.63;;;;;;;;;;5011909;28;20029;-83
2024/01/21 08:47:40;;;;;;;6.78;5.07;;;;;;;;;;5015518;28;20060;-81
2024/01/21 08:50:06;;;;;;;7.10;4.32;;;;;;;;;;5010789;28;20033;-81
2024/01/21 08:52:32;;;;;;;9.90;4.88;;;;;;;;;;5010967;28;20042;-81
2024/01/21 08:54:58;;;;;;;6.40;4.00;;;;;;;;;;5005050;28;20055;-82
2024/01/21 08:57:24;;;;;;;6.35;4.57;;;;;;;;;;5001154;28;20030;-80
2024/01/21 08:59:51;;;;;;;8.48;4.45;;;;;;;;;;5010173;28;20105;-80
2024/01/21 09:02:18;;;;;;;9.73;5.10;;;;;;;;;;5012790;28;20069;-80
2024/01/21 09:04:44;;;;;;;8.75;4.80;;;;;;;;;;5001871;28;20030;-80
2024/01/21 09:07:10;;;;;;;8.90;5.43;;;;;;;;;;5004511;28;20030;-80
2024/01/21 09:09:36;;;;;;;9.45;5.68;;;;;;;;;;5008765;28;20384;-82
2024/01/21 09:12:02;;;;;;;8.80;5.10;;;;;;;;;;5012097;28;20057;-81
2024/01/21 09:14:28;;;;;;;7.10;4.65;;;;;;;;;;5006476;28;20037;-80
2024/01/21 09:16:54;;;;;;;7.88;4.60;;;;;;;;;;5016508;28;20088;-80
2024/01/21 09:19:21;;;;;;;10.52;5.05;;;;;;;;;;5008238;28;20026;-81
2024/01/21 09:21:47;;;;;;;9.50;4.93;;;;;;;;;;5005425;28;20034;-80
2024/01/21 09:24:14;;;;;;;9.07;5.18;;;;;;;;;;5008883;28;20073;-85
2024/01/21 09:26:41;;;;;;;9.57;5.57;;;;;;;;;;5011046;28;20026;-81
2024/01/21 09:29:09;;;;;;;8.85;5.32;;;;;;;;;;5009987;28;20034;-79
2024/01/21 09:31:35;;;;;;;9.48;5.15;;;;;;;;;;5005290;28;20026;-79
2024/01/21 09:34:01;;;;;;;6.90;4.63;;;;;;;;;;5010122;28;20052;-82
2024/01/21 09:36:27;;;;;;;8.30;4.95;;;;;;;;;;5008941;28;20029;-80
2024/01/21 09:38:54;;;;;;;8.07;6.00;;;;;;;;;;5011711;28;20025;-81
2024/01/21 09:41:26;;;;;;;7.40;4.30;;;;;;;;;;5010406;28;20491;-80
2024/01/21 09:43:52;;;;;;;13.37;6.10;;;;;;;;;;5010552;28;20041;-80
2024/01/21 09:46:18;;;;;;;16.17;7.75;;;;;;;;;;5018402;28;20030;-82
2024/01/21 09:48:45;;;;;;;10.98;6.28;;;;;;;;;;5007704;28;20125;-81
2024/01/21 09:51:11;;;;;;;16.65;7.35;;;;;;;;;;5011270;28;20487;-80
2024/01/21 09:53:37;;;;;;;18.75;7.47;;;;;;;;;;5008640;28;20323;-83
2024/01/21 09:56:09;;;;;;;12.15;5.78;;;;;;;;;;5010771;28;20065;-82
2024/01/21 09:58:35;;;;;;;;;;;;;;;;;;5007797;28;20036;-79
2024/01/21 10:01:02;;;;;;;15.18;6.70;;;;;;;;;;5007485;28;19909;-79
2024/01/21 10:03:28;;;;;;;15.55;8.43;;;;;;;;;;5009616;28;20806;-73
2024/01/21 10:05:54;;;;;;;8.63;4.82;;;;;;;;;;5008653;28;20391;-80
2024/01/21 10:08:20;;;;;;;9.60;5.28;;;;;;;;;;5007906;28;20080;-81
2024/01/21 10:10:46;;;;;;;9.88;5.38;;;;;;;;;;5006513;28;20483;-81
2024/01/21 10:13:12;;;;;;;6.80;4.50;;;;;;;;;;5010312;28;20046;-79
2024/01/21 10:15:38;;;;;;;9.52;5.57;;;;;;;;;;5008286;28;20390;-80
2024/01/21 10:18:05;;;;;;;9.30;5.35;;;;;;;;;;5012204;28;20029;-79
2024/01/21 10:20:31;;;;;;;11.65;5.53;;;;;;;;;;5004712;28;20022;-79
2024/01/21 10:23:24;;;;;;;10.35;5.90;;;;;;;;;;5010254;28;20105;-78
2024/01/21 10:25:50;;;;;;;9.07;5.75;;;;;;;;;;5002266;28;20049;-81
2024/01/21 10:28:17;;;;;;;10.10;5.28;;;;;;;;;;5009542;28;20026;-79
2024/01/21 10:30:44;;;;;;;13.07;5.95;;;;;;;;;;5002504;28;20073;-79
2024/01/21 10:33:10;;;;;;;11.32;5.90;;;;;;;;;;5008321;28;20358;-78
2024/01/21 10:35:36;;;;;;;7.75;5.03;;;;;;;;;;5005373;28;20084;-82
2024/01/21 10:38:05;;;;;;;10.13;5.10;;;;;;;;;;5007369;28;20070;-79
2024/01/21 10:40:31;;;;;;;9.57;5.80;;;;;;;;;;5007811;28;20026;-82
2024/01/21 10:42:59;;;;;;;13.65;6.47;;;;;;;;;;5005542;28;20120;-80
2024/01/21 10:45:29;;;;;;;9.52;5.40;;;;;;;;;;5006322;28;20022;-78
2024/01/21 10:47:56;;;;;;;10.98;5.70;;;;;;;;;;5006658;28;20088;-80
2024/01/21 10:50:23;;;;;;;9.95;6.38;;;;;;;;;;5002071;28;20427;-79
2024/01/21 10:52:50;;;;;;;11.93;7.28;;;;;;;;;;5007383;28;20377;-79
2024/01/21 10:55:16;;;;;;;10.52;5.93;;;;;;;;;;5008117;28;20030;-78
2024/01/21 10:57:43;;;;;;;11.93;5.75;;;;;;;;;;5004693;28;20040;-82
2024/01/21 11:00:09;;;;;;;11.30;6.05;;;;;;;;;;5007916;28;20129;-81
2024/01/21 11:02:36;;;;;;;10.23;5.70;;;;;;;;;;5006682;28;20467;-79
2024/01/21 11:05:02;;;;;;;20.52;11.07;;;;;;;;;;5007939;28;20116;-80
2024/01/21 11:07:28;;;;;;;11.75;5.95;;;;;;;;;;5009183;28;20080;-78
2024/01/21 11:09:55;;;;;;;7.90;5.22;;;;;;;;;;5008092;28;20033;-77
2024/01/21 11:12:22;;;;;;;11.25;6.82;;;;;;;;;;5000320;28;20054;-80
2024/01/21 11:14:48;;;;;;;9.13;5.40;;;;;;;;;;5001230;28;20052;-79
2024/01/21 11:17:17;;;;;;;8.90;5.57;;;;;;;;;;5007083;28;20026;-78
2024/01/21 11:19:46;;;;;;;14.20;6.15;;;;;;;;;;5005667;28;20041;-80
2024/01/21 11:22:12;;;;;;;9.15;6.18;;;;;;;;;;5000590;28;20502;-79
2024/01/21 11:24:40;;;;;;;10.10;5.78;;;;;;;;;;5015090;28;20041;-79
2024/01/21 11:27:14;;;;;;;9.13;5.47;;;;;;;;;;5008847;28;20030;-81
2024/01/21 11:29:40;;;;;;;18.30;9.02;;;;;;;;;;5008755;28;20022;-83
2024/01/21 11:32:08;;;;;;;8.88;5.43;;;;;;;;;;5009237;28;20045;-79
2024/01/21 11:34:38;;;;;;;11.35;5.90;;;;;;;;;;5008001;28;20136;-82
2024/01/21 11:37:08;;;;;;;13.30;6.80;;;;;;;;;;5008239;28;20037;-78
2024/01/21 11:39:34;;;;;;;10.57;5.75;;;;;;;;;;5004668;28;20022;-79
2024/01/21 11:42:01;;;;;;;10.10;5.95;;;;;;;;;;5007418;28;20041;-78
2024/01/21 11:44:28;;;;;;;9.60;6.18;;;;;;;;;;5006566;28;20092;-78
2024/01/21 11:46:55;;;;;;;12.43;6.25;;;;;;;;;;5014400;28;20120;-78
2024/01/21 11:49:22;;;;;;;9.32;6.05;;;;;;;;;;5009536;28;20482;-80
2024/01/21 11:51:48;;;;;;;10.13;5.70;;;;;;;;;;4999507;28;20468;-79
2024/01/21 11:54:15;;;;;;;8.95;5.30;;;;;;;;;;5007980;28;20038;-80
2024/01/21 11:56:42;;;;;;;11.38;6.63;;;;;;;;;;5007446;28;20675;-78
2024/01/21 11:59:10;;;;;;;10.13;5.82;;;;;;;;;;5008956;28;20026;-79
2024/01/21 12:01:36;;;;;;;10.70;6.53;;;;;;;;;;5018445;28;20030;-77
2024/01/21 12:04:03;;;;;;;12.07;6.43;;;;;;;;;;5012209;28;20479;-77
2024/01/21 12:06:31;;;;;;;13.30;6.13;;;;;;;;;;5012081;28;20033;-78
2024/01/21 12:08:58;;;;;;;11.45;6.85;;;;;;;;;;5008396;28;20038;-79
2024/01/21 12:11:24;;;;;;;11.75;6.93;;;;;;;;;;5008167;28;20046;-77
2024/01/21 12:13:50;;;;;;;9.98;6.10;;;;;;;;;;5011276;28;20037;-80
2024/01/21 12:16:17;;;;;;;9.95;6.38;;;;;;;;;;5007161;28;20069;-76
2024/01/21 12:18:44;;;;;;;9.95;6.60;;;;;;;;;;5010987;28;20038;-78
2024/01/21 12:21:13;;;;;;;11.77;6.97;;;;;;;;;;4993187;28;20054;-76
2024/01/21 12:23:46;;;;;;;11.13;6.80;;;;;;;;;;5000954;28;20029;-79
2024/01/21 12:26:16;;;;;;;12.02;6.68;;;;;;;;;;5010815;28;20029;-79
2024/01/21 12:29:01;;;;;;;12.23;6.88;;;;;;;;;;5008759;28;20129;-78
2024/01/21 12:31:27;;;;;;;12.00;7.20;;;;;;;;;;5007909;28;20026;-80
2024/01/21 12:33:53;;;;;;;9.68;6.18;;;;;;;;;;5010149;28;20069;-79
2024/01/21 12:36:20;;;;;;;10.98;7.10;;;;;;;;;;5012190;28;20034;-78
2024/01/21 12:38:46;;;;;;;18.58;8.57;;;;;;;;;;5001016;28;21147;-81
2024/01/21 12:41:12;;;;;;;14.95;7.97;;;;;;;;;;5010546;28;20087;-77
2024/01/21 12:43:38;;;;;;;12.93;8.45;;;;;;;;;;5010611;28;20034;-78
2024/01/21 12:46:04;;;;;;;15.20;7.80;;;;;;;;;;5010507;28;20463;-78
2024/01/21 12:48:30;;;;;;;16.08;7.57;;;;;;;;;;5009102;28;20030;-78
2024/01/21 12:50:56;;;;;;;12.40;7.70;;;;;;;;;;5011965;28;20037;-80
2024/01/21 12:53:22;;;;;;;12.40;7.65;;;;;;;;;;5011027;28;20081;-78
2024/01/21 12:55:48;;;;;;;15.93;7.40;;;;;;;;;;5008026;28;20028;-77
2024/01/21 12:58:14;;;;;;;20.35;8.80;;;;;;;;;;5009060;28;20022;-77
2024/01/21 13:00:41;;;;;;;14.43;7.95;;;;;;;;;;5006546;28;20076;-78
2024/01/21 13:03:07;;;;;;;17.15;8.30;;;;;;;;;;5010991;28;20366;-78
2024/01/21 13:05:33;;;;;;;15.35;7.40;;;;;;;;;;5017396;28;20030;-78
2024/01/21 13:07:59;;;;;;;27.83;12.60;;;;;;;;;;5019151;28;20321;-81
2024/01/21 13:10:26;;;;;;;15.98;8.38;;;;;;;;;;5009758;28;20472;-80
2024/01/21 13:12:52;;;;;;;14.77;8.45;;;;;;;;;;5008603;28;20050;-77
2024/01/21 13:15:18;;;;;;;11.55;7.38;;;;;;;;;;5007373;28;20033;-78
2024/01/21 13:17:44;;;;;;;21.10;8.95;;;;;;;;;;5011309;28;20036;-77
2024/01/21 13:20:10;;;;;;;14.77;8.98;;;;;;;;;;5010375;28;20022;-77
2024/01/21 13:22:36;;;;;;;17.38;9.15;;;;;;;;;;5017807;28;20033;-76
2024/01/21 13:25:02;;;;;;;12.90;7.55;;;;;;;;;;5003686;28;20105;-77
2024/01/21 13:27:39;;;;;;;15.18;9.20;;;;;;;;;;5011479;28;20033;-79
2024/01/21 13:32:51;;;;;;;15.75;9.20;;;;;;;;;;5008943;28;20049;-80
2024/01/21 13:35:17;;;;;;;13.13;7.30;;;;;;;;;;5010743;28;20038;-80
2024/01/21 13:37:43;;;;;;;23.00;8.82;;;;;;;;;;5013526;28;20068;-78
2024/01/21 13:40:10;;;;;;;15.30;8.27;;;;;;;;;;5012030;28;20400;-79
2024/01/21 13:42:36;;;;;;;17.40;8.07;;;;;;;;;;5010521;28;20041;-83
2024/01/21 13:45:03;;;;;;;15.15;7.57;;;;;;;;;;5008550;28;20029;-77
2024/01/21 13:47:29;;;;;;;15.50;8.00;;;;;;;;;;5012170;28;20084;-81
2024/01/21 13:49:55;;;;;;;15.45;8.63;;;;;;;;;;5008410;28;20045;-78
2024/01/21 13:52:21;;;;;;;12.85;8.05;;;;;;;;;;5010295;28;20025;-85
2024/01/21 13:54:47;;;;;;;15.15;7.47;;;;;;;;;;5009423;28;20111;-80
2024/01/21 13:57:14;;;;;;;16.83;7.45;;;;;;;;;;5010553;28;20026;-76
2024/01/21 13:59:40;;;;;;;13.88;7.22;;;;;;;;;;5010992;28;20029;-78
2024/01/21 14:02:09;;;;;;;13.13;8.20;;;;;;;;;;5017496;28;20108;-77
2024/01/21 14:04:35;;;;;;;17.90;7.90;;;;;;;;;;4999349;28;20037;-79
2024/01/21 14:07:01;;;;;;;11.18;6.82;;;;;;;;;;5008223;28;20618;-77
2024/01/21 14:09:27;;;;;;;16.83;7.75;;;;;;;;;;5003803;28;20041;-78
2024/01/21 14:11:53;;;;;;;14.52;8.23;;;;;;;;;;5010559;28;20053;-83
2024/01/21 14:14:20;;;;;;;21.67;11.63;;;;;;;;;;5001877;28;20122;-83
2024/01/21 14:16:46;;;;;;;13.90;7.57;;;;;;;;;;5009576;28;20395;-77
2024/01/21 14:19:12;;;;;;;16.65;7.72;;;;;;;;;;5004943;28;20104;-78
2024/01/21 14:21:38;;;;;;;18.70;7.65;;;;;;;;;;5008166;28;20051;-79
2024/01/21 14:24:06;;;;;;;12.00;8.20;;;;;;;;;;4998170;28;20407;-78
2024/01/21 14:26:35;;;;;;;17.23;9.45;;;;;;;;;;4995601;28;20075;-79
2024/01/21 14:29:03;;;;;;;15.65;8.52;;;;;;;;;;5003136;28;20595;-78
2024/01/21 14:31:29;;;;;;;20.65;9.70;;;;;;;;;;4998873;28;20612;-78
2024/01/21 14:33:55;;;;;;;17.88;8.75;;;;;;;;;;4997531;28;20172;-78
2024/01/21 14:36:21;;;;;;;20.63;9.60;;;;;;;;;;5009991;28;20290;-79